Terminal Aerodrome Forecast
Issued by NWS Spokane, WA

Home | Current Version | Previous Version | Text Only | Print | Product List | Glossary On
Versions: 1 2 3 4 5 6 7 8 9 10 11 12 13 14 15 16 17 18 19 20 21 22 23 24 25 26 27 28 29
000
FTUS46 KOTX 282339
TAFEAT
TAF
KEAT 282339Z 2900/2924 20009KT P6SM SCT110 BKN140
     FM290300 33007KT P6SM SCT100 BKN120 OVC200
     FM290600 34004KT P6SM -SHRA SCT090 BKN100 BKN150
     FM291600 31009G17KT P6SM VCSH BKN100 OVC150
     FM291900 30015G23KT P6SM SCT050 BKN100 BKN150=

USA.gov is the U.S. government's official web portal to all federal, state and local government web resources and services.